createdAt,value
2022-12-12T00:00:38.309Z,15.90
2022-12-12T00:03:08.378Z,14.88
2022-12-12T00:05:38.301Z,15.55
2022-12-12T00:08:08.668Z,15.68
2022-12-12T00:10:39.358Z,16.85
2022-12-12T00:13:11.780Z,15.18
2022-12-12T00:15:41.643Z,14.93
2022-12-12T00:18:11.496Z,15.32
2022-12-12T00:20:41.348Z,15.60
2022-12-12T00:23:11.198Z,14.63
2022-12-12T00:25:41.026Z,16.27
2022-12-12T00:28:13.423Z,15.40
2022-12-12T00:30:43.242Z,17.20
2022-12-12T00:33:13.064Z,20.10
2022-12-12T00:35:42.977Z,16.25
2022-12-12T00:38:12.882Z,16.40
2022-12-12T00:40:42.693Z,15.40
2022-12-12T00:43:15.202Z,16.50
2022-12-12T00:45:45.244Z,17.00
2022-12-12T00:48:15.048Z,15.85
2022-12-12T00:50:45.214Z,14.38
2022-12-12T00:53:16.533Z,16.70
2022-12-12T00:55:46.518Z,16.45
2022-12-12T00:58:18.904Z,15.82
2022-12-12T01:00:48.773Z,14.90
2022-12-12T01:03:18.631Z,15.20
2022-12-12T01:05:48.633Z,15.93
2022-12-12T01:08:18.650Z,15.75
2022-12-12T01:10:48.599Z,15.77
2022-12-12T01:13:21.025Z,16.23
2022-12-12T01:15:51.365Z,15.65
2022-12-12T01:18:21.959Z,16.38
2022-12-12T01:20:51.804Z,16.42
2022-12-12T01:23:21.698Z,15.32
2022-12-12T01:25:51.714Z,16.02
2022-12-12T01:28:24.102Z,16.00
2022-12-12T01:30:53.953Z,13.50
2022-12-12T01:33:23.876Z,14.13
2022-12-12T01:35:55.398Z,15.20
2022-12-12T01:38:25.435Z,13.20
2022-12-12T01:40:56.127Z,12.73
2022-12-12T01:43:28.828Z,12.70
2022-12-12T01:46:42.387Z,14.25
2022-12-12T01:49:26.470Z,14.38
2022-12-12T01:52:01.469Z,13.35
2022-12-12T01:54:37.958Z,13.52
2022-12-12T01:57:12.529Z,13.73
2022-12-12T01:59:45.802Z,14.50
2022-12-12T02:02:15.993Z,12.43
2022-12-12T02:04:46.567Z,15.13
2022-12-12T02:07:17.826Z,14.80
2022-12-12T02:09:50.606Z,14.15
2022-12-12T02:12:20.582Z,13.52
2022-12-12T02:14:55.387Z,14.05
2022-12-12T02:18:03.489Z,14.20
2022-12-12T02:20:57.007Z,13.52
2022-12-12T02:24:12.950Z,14.02
2022-12-12T02:27:43.534Z,13.73
2022-12-12T02:30:23.950Z,12.88
2022-12-12T02:33:13.086Z,13.25
2022-12-12T02:35:59.910Z,13.48
2022-12-12T02:38:34.259Z,13.75
2022-12-12T02:41:18.409Z,12.73
2022-12-12T02:43:59.294Z,13.93
2022-12-12T02:46:35.805Z,13.02
2022-12-12T02:49:12.493Z,15.40
2022-12-12T02:51:43.351Z,13.48
2022-12-12T02:54:19.301Z,12.82
2022-12-12T02:56:54.777Z,12.90
2022-12-12T02:59:30.842Z,14.00
2022-12-12T03:02:48.665Z,12.95
2022-12-12T03:05:57.711Z,13.05
2022-12-12T03:08:51.836Z,13.05
2022-12-12T03:11:34.291Z,13.02
2022-12-12T03:14:13.399Z,12.50
2022-12-12T03:16:50.214Z,13.88
2022-12-12T03:19:27.818Z,14.73
2022-12-12T03:22:05.253Z,12.55
2022-12-12T03:24:43.234Z,14.32
2022-12-12T03:27:20.565Z,13.32
2022-12-12T03:32:39.174Z,14.05
2022-12-12T03:35:16.597Z,14.93
2022-12-12T03:37:53.878Z,14.00
2022-12-12T03:40:29.945Z,13.73
2022-12-12T03:43:06.345Z,14.30
2022-12-12T03:45:42.720Z,12.40
2022-12-12T03:48:19.373Z,12.85
2022-12-12T03:50:55.499Z,13.65
2022-12-12T03:53:35.907Z,12.32
2022-12-12T03:56:12.095Z,11.40
2022-12-12T03:58:50.198Z,13.05
2022-12-12T04:01:23.319Z,14.32
2022-12-12T04:03:59.344Z,13.90
2022-12-12T04:06:35.525Z,13.18
2022-12-12T04:09:25.891Z,13.38
2022-12-12T04:12:16.034Z,13.65
2022-12-12T04:15:17.790Z,13.57
2022-12-12T04:18:03.287Z,11.82
2022-12-12T04:21:00.084Z,11.80
2022-12-12T04:23:38.312Z,11.65
2022-12-12T04:26:29.370Z,11.40
2022-12-12T04:29:08.542Z,12.00
2022-12-12T04:31:43.337Z,12.02
2022-12-12T04:34:18.694Z,12.63
2022-12-12T04:36:51.118Z,14.15
2022-12-12T04:39:23.886Z,12.70
2022-12-12T04:41:57.724Z,10.95
2022-12-12T04:44:30.234Z,11.07
2022-12-12T04:47:04.005Z,11.23
2022-12-12T04:49:36.486Z,11.77
2022-12-12T04:52:11.073Z,12.88
2022-12-12T04:54:47.808Z,12.27
2022-12-12T04:57:27.325Z,10.70
2022-12-12T04:59:57.419Z,11.82
2022-12-12T05:02:34.598Z,10.82
2022-12-12T05:05:09.975Z,12.02
2022-12-12T05:07:42.489Z,11.57
2022-12-12T05:10:17.277Z,11.60
2022-12-12T05:12:52.950Z,11.52
2022-12-12T05:15:24.146Z,11.10
2022-12-12T05:18:00.315Z,10.68
2022-12-12T05:20:30.227Z,10.40
2022-12-12T05:23:00.379Z,10.88
2022-12-12T05:25:30.319Z,9.85
2022-12-12T05:28:02.949Z,10.25
2022-12-12T05:30:32.940Z,10.82
2022-12-12T05:33:02.811Z,10.07
2022-12-12T05:35:33.981Z,9.95
2022-12-12T05:38:04.398Z,10.63
2022-12-12T05:40:34.363Z,10.32
2022-12-12T05:43:06.943Z,9.75
2022-12-12T05:45:36.873Z,10.23
2022-12-12T05:48:07.135Z,8.85
2022-12-12T05:50:37.035Z,9.90
2022-12-12T05:53:06.921Z,10.85
2022-12-12T05:55:37.672Z,10.70
2022-12-12T05:58:10.269Z,10.07
2022-12-12T06:00:40.426Z,10.63
2022-12-12T06:03:10.275Z,9.63
2022-12-12T06:05:40.171Z,8.77
2022-12-12T06:08:10.141Z,9.18
2022-12-12T06:10:40.127Z,8.73
2022-12-12T06:13:12.591Z,8.65
2022-12-12T06:15:43.425Z,8.15
2022-12-12T06:18:13.480Z,8.20
2022-12-12T06:20:43.365Z,7.63
2022-12-12T06:23:13.299Z,7.55
2022-12-12T06:25:43.189Z,7.50
2022-12-12T06:28:15.586Z,7.35
2022-12-12T06:30:45.479Z,6.63
2022-12-12T06:33:15.342Z,7.38
2022-12-12T06:35:45.206Z,7.43
2022-12-12T06:38:15.084Z,7.38
2022-12-12T06:40:45.685Z,7.35
2022-12-12T06:43:18.120Z,6.70
2022-12-12T06:45:47.932Z,6.10
2022-12-12T06:48:17.828Z,6.18
2022-12-12T06:50:48.723Z,6.13
2022-12-12T06:53:18.589Z,6.63
2022-12-12T06:55:48.492Z,6.68
2022-12-12T06:58:20.970Z,6.65
2022-12-12T07:00:54.836Z,6.32
2022-12-12T07:03:24.680Z,6.13
2022-12-12T07:05:54.510Z,6.30
2022-12-12T07:08:24.462Z,6.10
2022-12-12T07:10:54.533Z,6.22
2022-12-12T07:13:26.967Z,6.75
2022-12-12T07:15:58.932Z,6.32
2022-12-12T07:18:28.914Z,6.68
2022-12-12T07:20:58.746Z,6.75
2022-12-12T07:23:28.623Z,6.40
2022-12-12T07:25:58.536Z,7.32
2022-12-12T07:28:31.118Z,6.65
2022-12-12T07:31:01.456Z,7.00
2022-12-12T07:33:42.683Z,6.80
2022-12-12T07:36:14.963Z,6.70
2022-12-12T07:38:45.540Z,6.85
2022-12-12T07:41:18.714Z,7.07
2022-12-12T07:43:52.477Z,6.40
2022-12-12T07:46:25.302Z,6.73
2022-12-12T07:48:56.255Z,7.20
2022-12-12T07:51:27.758Z,7.30
2022-12-12T07:53:57.748Z,6.85
2022-12-12T07:56:27.700Z,6.95
2022-12-12T07:59:00.223Z,6.38
2022-12-12T08:01:30.976Z,6.65
2022-12-12T08:04:01.089Z,7.40
2022-12-12T08:06:31.034Z,6.88
2022-12-12T08:09:01.036Z,7.25
2022-12-12T08:11:30.991Z,6.43
2022-12-12T08:14:06.957Z,7.35
2022-12-12T08:16:41.220Z,6.80
2022-12-12T08:19:11.162Z,8.10
2022-12-12T08:21:41.131Z,6.80
2022-12-12T08:24:14.412Z,6.75
2022-12-12T08:26:45.558Z,7.80
2022-12-12T08:29:18.367Z,7.10
2022-12-12T08:31:48.386Z,7.70
2022-12-12T08:34:18.326Z,6.60
2022-12-12T08:36:49.227Z,7.57
2022-12-12T08:39:19.625Z,6.93
2022-12-12T08:41:51.202Z,7.32
2022-12-12T08:44:24.497Z,6.43
2022-12-12T08:46:54.482Z,6.28
2022-12-12T08:49:24.636Z,7.70
2022-12-12T08:51:54.723Z,7.28
2022-12-12T08:54:24.625Z,6.90
2022-12-12T08:56:54.618Z,6.57
2022-12-12T08:59:27.177Z,8.05
2022-12-12T09:01:57.295Z,6.10
2022-12-12T09:04:27.394Z,7.47
2022-12-12T09:06:57.725Z,6.75
2022-12-12T09:09:27.683Z,6.93
2022-12-12T09:11:57.614Z,6.90
2022-12-12T09:14:30.117Z,6.15
2022-12-12T09:17:00.331Z,6.40
2022-12-12T09:19:30.396Z,6.93
2022-12-12T09:22:00.370Z,5.35
2022-12-12T09:24:30.465Z,6.90
2022-12-12T09:27:00.438Z,5.88
2022-12-12T09:29:33.279Z,5.88
2022-12-12T09:32:06.594Z,6.05
2022-12-12T09:34:36.650Z,6.78
2022-12-12T09:37:07.004Z,5.97
2022-12-12T09:39:36.950Z,6.15
2022-12-12T09:42:15.181Z,6.28
2022-12-12T09:44:47.700Z,5.72
2022-12-12T09:47:33.215Z,5.53
2022-12-12T09:50:08.748Z,6.15
2022-12-12T09:52:39.667Z,6.22
2022-12-12T09:55:38.125Z,5.75
2022-12-12T09:58:20.937Z,5.55
2022-12-12T10:01:02.795Z,6.32
2022-12-12T10:03:56.952Z,6.05
2022-12-12T10:06:37.229Z,6.35
2022-12-12T10:09:28.696Z,6.68
2022-12-12T10:12:03.483Z,6.22
2022-12-12T10:14:42.293Z,5.43
2022-12-12T10:17:18.776Z,6.13
2022-12-12T10:19:54.662Z,6.78
2022-12-12T10:22:35.524Z,7.22
2022-12-12T10:25:18.607Z,5.78
2022-12-12T10:27:48.887Z,6.10
2022-12-12T10:30:22.706Z,5.65
2022-12-12T10:33:15.021Z,5.93
2022-12-12T10:35:52.339Z,5.43
2022-12-12T10:38:38.140Z,5.80
2022-12-12T10:41:15.216Z,5.63
2022-12-12T10:43:55.551Z,5.32
2022-12-12T10:46:31.247Z,5.05
2022-12-12T10:49:03.910Z,5.85
2022-12-12T10:51:34.033Z,5.90
2022-12-12T10:54:04.865Z,5.82
2022-12-12T10:56:34.765Z,5.25
2022-12-12T10:59:04.583Z,6.20
2022-12-12T11:02:09.012Z,6.30
2022-12-12T11:04:34.623Z,5.97
2022-12-12T11:07:04.887Z,5.88
2022-12-12T11:09:34.760Z,5.00
2022-12-12T11:12:07.785Z,5.32
2022-12-12T11:14:40.717Z,5.47
2022-12-12T11:17:24.587Z,5.78
2022-12-12T11:20:00.201Z,5.03
2022-12-12T11:22:33.942Z,4.82
2022-12-12T11:25:04.137Z,4.47
2022-12-12T11:27:37.056Z,4.70
2022-12-12T11:30:10.870Z,5.25
2022-12-12T11:32:44.635Z,4.90
2022-12-12T11:35:29.576Z,5.73
2022-12-12T11:38:04.292Z,5.32
2022-12-12T11:43:20.810Z,4.72
2022-12-12T11:46:08.594Z,4.95
2022-12-12T11:48:59.337Z,4.43
2022-12-12T11:51:41.009Z,5.22
2022-12-12T11:54:17.145Z,4.65
2022-12-12T11:56:53.680Z,4.78
2022-12-12T12:00:06.093Z,4.65
2022-12-12T12:03:15.489Z,4.90
2022-12-12T12:06:21.802Z,4.97
2022-12-12T12:09:22.172Z,4.00
2022-12-12T12:12:02.765Z,4.30
2022-12-12T12:15:00.140Z,4.70
2022-12-12T12:17:49.890Z,5.38
2022-12-12T12:20:30.824Z,5.20
2022-12-12T12:23:08.985Z,5.40
2022-12-12T12:25:53.537Z,6.15
2022-12-12T12:28:49.582Z,5.70
2022-12-12T12:31:28.846Z,8.05
2022-12-12T12:34:12.960Z,5.97
2022-12-12T12:37:00.721Z,6.60
2022-12-12T12:39:58.622Z,7.93
2022-12-12T12:42:50.871Z,7.03
2022-12-12T12:45:29.319Z,6.97
2022-12-12T12:48:10.425Z,8.13
2022-12-12T12:50:47.000Z,7.78
2022-12-12T12:53:32.342Z,7.88
2022-12-12T12:56:06.870Z,8.20
2022-12-12T12:58:49.609Z,8.30
2022-12-12T13:01:25.120Z,7.72
2022-12-12T13:04:05.289Z,8.52
2022-12-12T13:06:45.015Z,8.20
2022-12-12T13:09:36.980Z,6.40
2022-12-12T13:12:16.031Z,6.68
2022-12-12T13:14:54.558Z,7.80
2022-12-12T13:17:29.643Z,8.48
2022-12-12T13:20:00.912Z,7.82
2022-12-12T13:22:53.353Z,8.02
2022-12-12T13:25:37.590Z,5.85
2022-12-12T13:28:14.210Z,6.07
2022-12-12T13:31:13.744Z,4.68
2022-12-12T13:33:46.913Z,5.32
2022-12-12T13:36:29.291Z,5.20
2022-12-12T13:39:03.610Z,4.47
2022-12-12T13:41:58.844Z,4.73
2022-12-12T13:44:44.482Z,5.20
2022-12-12T13:48:04.656Z,5.07
2022-12-12T13:50:34.837Z,5.43
2022-12-12T13:53:21.788Z,3.88
2022-12-12T13:55:51.719Z,4.85
2022-12-12T13:58:35.977Z,4.32
2022-12-12T14:01:39.270Z,4.80
2022-12-12T14:04:28.311Z,5.10
2022-12-12T14:07:04.081Z,4.93
2022-12-12T14:09:47.698Z,4.40
2022-12-12T14:12:27.501Z,4.90
2022-12-12T14:15:04.027Z,4.90
2022-12-12T14:17:42.149Z,4.97
2022-12-12T14:20:33.188Z,4.63
2022-12-12T14:23:32.134Z,4.32
2022-12-12T14:26:02.549Z,4.38
2022-12-12T14:28:34.456Z,4.65
2022-12-12T14:31:17.241Z,4.65
2022-12-12T14:34:20.650Z,4.97
2022-12-12T14:37:33.101Z,4.55
2022-12-12T14:40:13.867Z,4.97
2022-12-12T14:43:19.080Z,5.00
2022-12-12T14:45:59.299Z,5.13
2022-12-12T14:48:31.911Z,5.03
2022-12-12T14:51:10.326Z,4.85
2022-12-12T14:53:50.630Z,5.30
2022-12-12T14:56:25.038Z,5.28
2022-12-12T14:59:02.905Z,4.35
2022-12-12T15:01:37.178Z,5.18
2022-12-12T15:04:13.025Z,4.85
2022-12-12T15:06:43.745Z,4.70
2022-12-12T15:09:22.579Z,4.90
2022-12-12T15:11:53.741Z,4.72
2022-12-12T15:14:28.587Z,4.20
2022-12-12T15:17:04.764Z,5.00
2022-12-12T15:19:38.899Z,4.88
2022-12-12T15:22:14.762Z,4.70
2022-12-12T15:24:47.279Z,5.10
2022-12-12T15:27:24.365Z,5.63
2022-12-12T15:29:54.710Z,6.25
2022-12-12T15:32:27.016Z,5.30
2022-12-12T15:35:06.844Z,4.97
2022-12-12T15:37:38.864Z,5.30
2022-12-12T15:40:29.687Z,5.82
2022-12-12T15:43:03.002Z,6.22
2022-12-12T15:45:36.934Z,5.60
2022-12-12T15:48:09.198Z,5.93
2022-12-12T15:50:57.103Z,6.30
2022-12-12T15:53:29.464Z,5.18
2022-12-12T15:56:06.519Z,5.53
2022-12-12T15:58:40.443Z,6.07
2022-12-12T16:01:21.012Z,5.68
2022-12-12T16:04:01.208Z,6.25
2022-12-12T16:06:33.367Z,5.90
2022-12-12T16:09:09.474Z,5.90
2022-12-12T16:11:49.717Z,5.75
2022-12-12T16:14:39.569Z,6.40
2022-12-12T16:17:15.753Z,6.80
2022-12-12T16:22:31.227Z,6.32
2022-12-12T16:25:18.432Z,6.63
2022-12-12T16:27:55.377Z,6.80
2022-12-12T16:30:25.349Z,7.18
2022-12-12T16:32:55.333Z,7.85
2022-12-12T16:35:27.230Z,7.78
2022-12-12T16:37:57.095Z,7.97
2022-12-12T16:40:27.028Z,7.63
2022-12-12T16:43:11.008Z,8.43
2022-12-12T16:45:41.535Z,8.60
2022-12-12T16:48:17.472Z,8.82
2022-12-12T16:50:48.135Z,7.90
2022-12-12T16:53:18.642Z,8.13
2022-12-12T16:55:51.401Z,8.35
2022-12-12T16:58:23.955Z,7.63
2022-12-12T17:00:55.858Z,7.93
2022-12-12T17:03:26.606Z,7.53
2022-12-12T17:05:56.572Z,6.72
2022-12-12T17:08:26.440Z,7.53
2022-12-12T17:11:10.287Z,7.13
2022-12-12T17:13:50.990Z,7.05
2022-12-12T17:16:27.337Z,8.23
2022-12-12T17:18:58.490Z,7.10
2022-12-12T17:21:28.616Z,7.38
2022-12-12T17:23:58.561Z,7.18
2022-12-12T17:26:28.470Z,7.10
2022-12-12T17:29:01.052Z,7.75
2022-12-12T17:31:31.110Z,7.65
2022-12-12T17:34:01.050Z,7.30
2022-12-12T17:36:31.145Z,7.80
2022-12-12T17:39:01.167Z,6.97
2022-12-12T17:41:31.110Z,7.15
2022-12-12T17:44:03.539Z,7.47
2022-12-12T17:46:33.407Z,7.95
2022-12-12T17:49:03.646Z,7.38
2022-12-12T17:51:33.643Z,7.30
2022-12-12T17:54:03.615Z,7.43
2022-12-12T17:56:33.844Z,6.95
2022-12-12T17:59:07.144Z,6.78
2022-12-12T18:01:37.608Z,7.55
2022-12-12T18:04:09.088Z,7.72
2022-12-12T18:06:39.828Z,9.75
2022-12-12T18:09:09.712Z,8.85
2022-12-12T18:11:41.773Z,7.93
2022-12-12T18:14:19.161Z,12.93
2022-12-12T18:16:53.037Z,11.63
2022-12-12T18:19:24.498Z,16.35
2022-12-12T18:22:02.851Z,8.95
2022-12-12T18:24:33.170Z,8.23
2022-12-12T18:27:04.530Z,7.88
2022-12-12T18:29:37.174Z,7.65
2022-12-12T18:32:08.067Z,9.25
2022-12-12T18:34:38.097Z,7.03
2022-12-12T18:37:07.984Z,8.20
2022-12-12T18:39:37.908Z,8.38
2022-12-12T18:42:07.971Z,7.45
2022-12-12T18:44:40.410Z,5.82
2022-12-12T18:47:10.322Z,6.95
2022-12-12T18:49:40.489Z,7.57
2022-12-12T18:52:10.419Z,6.10
2022-12-12T18:54:40.270Z,5.93
2022-12-12T18:57:10.678Z,5.50
2022-12-12T18:59:43.271Z,6.43
2022-12-12T19:02:15.361Z,6.63
2022-12-12T19:04:47.173Z,5.32
2022-12-12T19:07:18.471Z,5.30
2022-12-12T19:09:48.664Z,5.13
2022-12-12T19:12:18.505Z,4.90
2022-12-12T19:17:41.314Z,5.60
2022-12-12T19:20:13.001Z,5.80
2022-12-12T19:22:45.882Z,4.60
2022-12-12T19:25:17.333Z,5.10
2022-12-12T19:27:48.129Z,4.75
2022-12-12T19:30:20.979Z,5.55
2022-12-12T19:32:51.306Z,4.57
2022-12-12T19:35:21.518Z,5.30
2022-12-12T19:37:51.863Z,5.18
2022-12-12T19:40:22.047Z,4.95
2022-12-12T19:42:51.997Z,4.95
2022-12-12T19:45:24.809Z,4.00
2022-12-12T19:47:54.756Z,4.80
2022-12-12T19:50:24.663Z,4.03
2022-12-12T19:52:54.538Z,4.32
2022-12-12T19:55:24.526Z,4.03
2022-12-12T19:57:54.415Z,4.15
2022-12-12T20:00:26.966Z,4.68
2022-12-12T20:02:56.990Z,4.07
2022-12-12T20:05:26.955Z,4.32
2022-12-12T20:07:56.963Z,4.97
2022-12-12T20:10:26.898Z,4.93
2022-12-12T20:12:58.794Z,4.40
2022-12-12T20:15:31.508Z,4.72
2022-12-12T20:18:02.879Z,4.03
2022-12-12T20:20:32.769Z,4.60
2022-12-12T20:23:02.622Z,4.80
2022-12-12T20:25:32.494Z,5.20
2022-12-12T20:28:02.346Z,4.68
2022-12-12T20:30:34.846Z,5.00
2022-12-12T20:33:04.713Z,5.10
2022-12-12T20:35:37.268Z,4.20
2022-12-12T20:38:07.198Z,4.53
2022-12-12T20:40:46.005Z,4.80
2022-12-12T20:43:17.146Z,4.32
2022-12-12T20:45:52.260Z,4.70
2022-12-12T20:48:22.295Z,4.80
2022-12-12T20:50:52.153Z,5.70
2022-12-12T20:53:21.990Z,5.22
2022-12-12T20:55:51.826Z,6.13
2022-12-12T20:58:21.655Z,6.18
2022-12-12T21:00:56.591Z,5.88
2022-12-12T21:03:26.507Z,5.75
2022-12-12T21:05:56.670Z,5.70
2022-12-12T21:08:26.664Z,6.78
2022-12-12T21:10:56.607Z,6.47
2022-12-12T21:13:26.422Z,6.53
2022-12-12T21:15:58.894Z,5.90
2022-12-12T21:18:28.822Z,5.65
2022-12-12T21:20:58.684Z,5.32
2022-12-12T21:23:28.603Z,9.80
2022-12-12T21:25:58.458Z,6.47
2022-12-12T21:28:28.303Z,7.35
2022-12-12T21:31:01.054Z,8.68
2022-12-12T21:33:31.124Z,8.13
2022-12-12T21:36:06.854Z,6.30
2022-12-12T21:38:37.123Z,7.07
2022-12-12T21:41:07.891Z,6.45
2022-12-12T21:43:38.071Z,9.02
2022-12-12T21:46:14.651Z,7.18
2022-12-12T21:48:44.608Z,7.20
2022-12-12T21:51:18.195Z,8.80
2022-12-12T21:53:48.063Z,9.43
2022-12-12T21:56:20.106Z,9.13
2022-12-12T21:58:49.996Z,10.00
2022-12-12T22:01:24.169Z,8.98
2022-12-12T22:03:54.132Z,10.18
2022-12-12T22:06:27.307Z,11.60
2022-12-12T22:08:58.436Z,15.90
2022-12-12T22:11:41.304Z,12.02
2022-12-12T22:14:21.167Z,10.57
2022-12-12T22:16:53.602Z,10.63
2022-12-12T22:19:23.441Z,11.18
2022-12-12T22:21:53.290Z,8.60
2022-12-12T22:24:23.286Z,8.85
2022-12-12T22:26:53.417Z,13.25
2022-12-12T22:29:23.786Z,10.15
2022-12-12T22:31:56.190Z,7.72
2022-12-12T22:34:27.535Z,7.53
2022-12-12T22:36:57.355Z,7.70
2022-12-12T22:39:29.700Z,5.90
2022-12-12T22:41:59.942Z,7.85
2022-12-12T22:44:29.841Z,7.43
2022-12-12T22:47:02.377Z,7.00
2022-12-12T22:49:32.351Z,6.72
2022-12-12T22:52:02.217Z,7.20
2022-12-12T22:54:32.102Z,7.72
2022-12-12T22:57:01.946Z,7.15
2022-12-12T22:59:31.852Z,6.75
2022-12-12T23:02:04.278Z,8.02
2022-12-12T23:04:34.232Z,6.72
2022-12-12T23:07:04.169Z,7.53
2022-12-12T23:09:34.796Z,7.97
2022-12-12T23:12:04.658Z,7.30
2022-12-12T23:14:34.655Z,8.27
2022-12-12T23:17:07.154Z,7.93
2022-12-12T23:19:37.229Z,8.27
2022-12-12T23:22:07.457Z,8.15
2022-12-12T23:24:37.471Z,7.90
2022-12-12T23:27:07.498Z,8.60
2022-12-12T23:29:37.554Z,7.85
2022-12-12T23:32:10.264Z,8.27
2022-12-12T23:34:40.505Z,8.25
2022-12-12T23:37:10.409Z,9.38
2022-12-12T23:39:40.324Z,7.47
2022-12-12T23:42:10.179Z,7.85
2022-12-12T23:44:40.071Z,8.48
2022-12-12T23:47:12.518Z,8.70
2022-12-12T23:49:42.482Z,9.05
2022-12-12T23:52:12.371Z,12.55
2022-12-12T23:54:42.224Z,8.88
2022-12-12T23:57:12.302Z,12.00
2022-12-12T23:59:42.184Z,10.68
